createdAt,value
2022-11-19T00:01:25.335Z,97.60
2022-11-19T00:03:53.336Z,98.10
2022-11-19T00:06:22.819Z,97.70
2022-11-19T00:08:50.444Z,98.10
2022-11-19T00:11:41.632Z,98.50
2022-11-19T00:14:10.276Z,98.90
2022-11-19T00:16:37.142Z,99.40
2022-11-19T00:19:05.053Z,98.90
2022-11-19T00:21:31.903Z,99.30
2022-11-19T00:23:59.541Z,99.70
2022-11-19T00:26:26.611Z,99.70
2022-11-19T00:28:54.407Z,99.90
2022-11-19T00:31:21.323Z,99.90
2022-11-19T00:33:50.604Z,99.90
2022-11-19T00:36:17.759Z,99.90
2022-11-19T00:38:44.664Z,99.90
2022-11-19T00:41:11.978Z,99.90
2022-11-19T00:43:48.143Z,99.90
2022-11-19T00:46:21.514Z,99.90
2022-11-19T00:48:50.248Z,99.90
2022-11-19T00:51:18.803Z,99.90
2022-11-19T00:53:46.010Z,99.90
2022-11-19T00:56:15.756Z,99.90
2022-11-19T00:58:43.624Z,99.90
2022-11-19T01:01:11.436Z,99.90
2022-11-19T01:03:40.694Z,99.90
2022-11-19T01:06:08.299Z,99.90
2022-11-19T01:08:36.289Z,99.90
2022-11-19T01:11:09.022Z,99.90
2022-11-19T01:13:36.649Z,99.90
2022-11-19T01:16:25.761Z,99.90
2022-11-19T01:18:53.843Z,99.90
2022-11-19T01:21:23.225Z,99.90
2022-11-19T01:23:50.703Z,99.90
2022-11-19T01:26:18.272Z,99.90
2022-11-19T01:28:45.821Z,99.90
2022-11-19T01:31:15.998Z,99.90
2022-11-19T01:33:43.733Z,99.90
2022-11-19T01:36:19.479Z,99.90
2022-11-19T01:38:52.471Z,99.90
2022-11-19T01:41:24.543Z,99.90
2022-11-19T01:44:05.782Z,99.90
2022-11-19T01:46:36.201Z,99.90
2022-11-19T01:49:14.697Z,99.90
2022-11-19T01:51:48.226Z,99.90
2022-11-19T01:54:43.978Z,99.90
2022-11-19T01:57:14.813Z,99.90
2022-11-19T01:59:43.936Z,99.90
2022-11-19T02:02:10.945Z,99.90
2022-11-19T02:04:39.571Z,99.90
2022-11-19T02:07:07.738Z,99.90
2022-11-19T02:09:34.771Z,99.90
2022-11-19T02:12:13.161Z,99.90
2022-11-19T02:14:58.687Z,99.90
2022-11-19T02:17:50.736Z,99.90
2022-11-19T02:20:17.683Z,99.90
2022-11-19T02:23:05.648Z,99.90
2022-11-19T02:25:59.420Z,99.90
2022-11-19T02:28:37.829Z,99.90
2022-11-19T02:31:17.059Z,99.90
2022-11-19T02:34:09.340Z,99.90
2022-11-19T02:36:38.346Z,99.90
2022-11-19T02:39:08.268Z,99.90
2022-11-19T02:41:44.615Z,99.90
2022-11-19T02:44:45.832Z,99.90
2022-11-19T02:47:17.420Z,99.90
2022-11-19T02:49:45.291Z,99.90
2022-11-19T02:52:14.679Z,99.90
2022-11-19T02:54:41.909Z,99.90
2022-11-19T02:57:11.930Z,99.90
2022-11-19T03:00:21.286Z,99.90
2022-11-19T03:03:17.113Z,99.90
2022-11-19T03:05:50.837Z,99.90
2022-11-19T03:08:18.521Z,99.90
2022-11-19T03:11:28.211Z,99.90
2022-11-19T03:14:41.288Z,99.90
2022-11-19T03:17:24.746Z,99.90
2022-11-19T03:20:06.874Z,99.90
2022-11-19T03:22:37.954Z,99.90
2022-11-19T03:25:15.977Z,99.90
2022-11-19T03:27:47.182Z,99.90
2022-11-19T03:30:17.584Z,99.90
2022-11-19T03:32:56.718Z,99.90
2022-11-19T03:35:29.794Z,99.90
2022-11-19T03:38:01.375Z,99.90
2022-11-19T03:40:31.393Z,99.90
2022-11-19T03:43:01.129Z,99.90
2022-11-19T03:45:33.003Z,99.90
2022-11-19T03:48:02.536Z,99.90
2022-11-19T03:50:37.877Z,99.90
2022-11-19T03:53:04.953Z,99.90
2022-11-19T03:55:37.343Z,99.90
2022-11-19T03:58:06.518Z,99.90
2022-11-19T04:00:33.765Z,99.90
2022-11-19T04:03:00.912Z,99.90
2022-11-19T04:05:27.936Z,99.90
2022-11-19T04:07:54.973Z,99.90
2022-11-19T04:10:22.037Z,99.90
2022-11-19T04:12:48.956Z,99.90
2022-11-19T04:15:16.125Z,99.90
2022-11-19T04:17:43.114Z,99.90
2022-11-19T04:20:10.520Z,99.90
2022-11-19T04:22:37.902Z,99.90
2022-11-19T04:25:05.646Z,99.90
2022-11-19T04:27:32.771Z,99.90
2022-11-19T04:30:00.184Z,99.90
2022-11-19T04:32:27.828Z,99.90
2022-11-19T04:34:55.721Z,99.90
2022-11-19T04:37:23.113Z,99.90
2022-11-19T04:39:50.131Z,99.90
2022-11-19T04:42:17.048Z,99.90
2022-11-19T04:44:43.954Z,99.90
2022-11-19T04:47:10.898Z,99.90
2022-11-19T04:49:37.738Z,99.90
2022-11-19T04:52:04.935Z,99.90
2022-11-19T04:54:31.878Z,99.90
2022-11-19T04:56:58.721Z,99.90
2022-11-19T04:59:25.645Z,99.90
2022-11-19T05:01:52.622Z,99.90
2022-11-19T05:04:19.611Z,99.90
2022-11-19T05:06:46.509Z,99.90
2022-11-19T05:09:13.511Z,99.90
2022-11-19T05:11:40.395Z,99.90
2022-11-19T05:14:07.341Z,99.90
2022-11-19T05:16:34.297Z,99.90
2022-11-19T05:19:01.219Z,99.90
2022-11-19T05:21:28.286Z,99.90
2022-11-19T05:23:55.178Z,99.90
2022-11-19T05:26:22.122Z,99.90
2022-11-19T05:28:48.984Z,99.90
2022-11-19T05:31:15.846Z,99.90
2022-11-19T05:33:42.689Z,99.90
2022-11-19T05:36:09.849Z,99.90
2022-11-19T05:38:37.471Z,99.90
2022-11-19T05:41:04.464Z,99.90
2022-11-19T05:43:31.285Z,99.90
2022-11-19T05:46:02.076Z,99.90
2022-11-19T05:48:29.665Z,99.90
2022-11-19T05:50:56.698Z,99.90
2022-11-19T05:53:23.632Z,99.90
2022-11-19T05:55:50.673Z,99.90
2022-11-19T05:58:17.560Z,99.90
2022-11-19T06:00:44.468Z,99.90
2022-11-19T06:03:11.469Z,99.90
2022-11-19T06:05:40.601Z,99.90
2022-11-19T06:08:07.997Z,99.90
2022-11-19T06:10:42.878Z,99.90
2022-11-19T06:13:09.959Z,99.90
2022-11-19T06:15:36.869Z,99.90
2022-11-19T06:18:04.309Z,99.90
2022-11-19T06:20:31.195Z,99.90
2022-11-19T06:22:58.186Z,99.90
2022-11-19T06:25:25.051Z,99.90
2022-11-19T06:27:51.976Z,99.90
2022-11-19T06:30:18.978Z,99.90
2022-11-19T06:32:45.853Z,99.90
2022-11-19T06:35:14.499Z,99.90
2022-11-19T06:37:41.506Z,99.90
2022-11-19T06:40:09.010Z,99.90
2022-11-19T06:42:38.940Z,99.90
2022-11-19T06:45:09.605Z,99.90
2022-11-19T06:47:37.899Z,99.90
2022-11-19T06:50:06.984Z,99.90
2022-11-19T06:52:33.825Z,99.90
2022-11-19T06:55:00.888Z,99.90
2022-11-19T06:57:27.738Z,99.90
2022-11-19T06:59:54.654Z,99.90
2022-11-19T07:02:21.903Z,99.90
2022-11-19T07:04:49.058Z,99.90
2022-11-19T07:07:16.147Z,99.90
2022-11-19T07:09:45.624Z,99.90
2022-11-19T07:12:15.351Z,99.90
2022-11-19T07:14:42.512Z,99.90
2022-11-19T07:17:09.387Z,99.90
2022-11-19T07:19:36.309Z,99.90
2022-11-19T07:22:03.358Z,99.90
2022-11-19T07:24:30.235Z,99.90
2022-11-19T07:26:57.304Z,99.90
2022-11-19T07:29:24.204Z,99.90
2022-11-19T07:31:53.282Z,99.90
2022-11-19T07:34:21.087Z,99.90
2022-11-19T07:36:48.390Z,99.90
2022-11-19T07:39:15.689Z,99.90
2022-11-19T07:42:00.896Z,99.90
2022-11-19T07:44:27.874Z,99.90
2022-11-19T07:46:54.893Z,99.90
2022-11-19T07:49:22.298Z,99.90
2022-11-19T07:51:49.457Z,99.90
2022-11-19T07:54:16.615Z,99.90
2022-11-19T07:56:43.664Z,99.90
2022-11-19T07:59:11.186Z,99.90
2022-11-19T08:01:38.859Z,99.90
2022-11-19T08:04:06.138Z,99.90
2022-11-19T08:06:34.767Z,99.90
2022-11-19T08:09:02.925Z,99.90
2022-11-19T08:11:30.259Z,99.90
2022-11-19T08:14:01.140Z,99.90
2022-11-19T08:16:46.704Z,99.90
2022-11-19T08:19:15.578Z,99.90
2022-11-19T08:21:45.069Z,99.90
2022-11-19T08:24:12.980Z,99.90
2022-11-19T08:26:40.896Z,99.90
2022-11-19T08:29:13.036Z,99.90
2022-11-19T08:31:46.609Z,99.90
2022-11-19T08:34:14.398Z,99.90
2022-11-19T08:36:41.479Z,99.90
2022-11-19T08:39:08.393Z,99.90
2022-11-19T08:41:54.155Z,99.00
2022-11-19T08:44:21.785Z,98.60
2022-11-19T08:46:49.040Z,95.70
2022-11-19T08:49:15.925Z,97.80
2022-11-19T08:51:43.001Z,98.60
2022-11-19T08:54:09.957Z,97.10
2022-11-19T08:56:36.959Z,97.30
2022-11-19T08:59:03.866Z,95.40
2022-11-19T09:01:31.363Z,94.80
2022-11-19T09:03:58.472Z,92.80
2022-11-19T09:06:28.026Z,90.80
2022-11-19T09:08:54.877Z,86.50
2022-11-19T09:11:22.587Z,83.80
2022-11-19T09:13:52.566Z,80.60
2022-11-19T09:16:19.702Z,77.50
2022-11-19T09:18:49.928Z,73.00
2022-11-19T09:21:16.909Z,72.70
2022-11-19T09:23:44.078Z,73.20
2022-11-19T09:26:17.285Z,71.30
2022-11-19T09:28:45.187Z,69.50
2022-11-19T09:31:17.839Z,68.60
2022-11-19T09:33:50.892Z,66.50
2022-11-19T09:36:19.543Z,67.60
2022-11-19T09:38:47.302Z,67.00
2022-11-19T09:41:36.095Z,66.60
2022-11-19T09:44:06.084Z,62.70
2022-11-19T09:46:45.011Z,62.00
2022-11-19T09:49:17.100Z,62.90
2022-11-19T09:51:50.994Z,63.10
2022-11-19T09:54:21.999Z,62.10
2022-11-19T09:56:52.281Z,60.50
2022-11-19T09:59:25.414Z,60.90
2022-11-19T10:01:53.221Z,57.70
2022-11-19T10:04:23.968Z,59.60
2022-11-19T10:07:06.676Z,58.90
2022-11-19T10:09:51.998Z,57.50
2022-11-19T10:12:42.885Z,57.50
2022-11-19T10:15:16.636Z,56.40
2022-11-19T10:17:57.076Z,56.90
2022-11-19T10:20:42.493Z,55.70
2022-11-19T10:23:49.022Z,56.70
2022-11-19T10:26:18.769Z,54.70
2022-11-19T10:28:58.781Z,56.00
2022-11-19T10:31:45.427Z,52.80
2022-11-19T10:34:31.223Z,53.90
2022-11-19T10:37:05.042Z,51.40
2022-11-19T10:39:36.752Z,53.20
2022-11-19T10:42:19.043Z,51.80
2022-11-19T10:45:27.113Z,51.70
2022-11-19T10:48:23.148Z,50.30
2022-11-19T10:50:51.135Z,51.40
2022-11-19T10:53:25.724Z,51.30
2022-11-19T10:55:56.863Z,50.90
2022-11-19T10:58:25.078Z,51.00
2022-11-19T11:00:59.734Z,50.30
2022-11-19T11:03:46.930Z,48.30
2022-11-19T11:06:14.165Z,48.40
2022-11-19T11:08:52.265Z,48.60
2022-11-19T11:11:50.052Z,46.00
2022-11-19T11:14:38.072Z,45.90
2022-11-19T11:17:16.515Z,47.90
2022-11-19T11:19:43.664Z,48.30
2022-11-19T11:22:11.305Z,48.30
2022-11-19T11:24:39.533Z,47.50
2022-11-19T11:27:30.847Z,46.90
2022-11-19T11:30:17.392Z,47.10
2022-11-19T11:32:44.502Z,46.40
2022-11-19T11:35:36.401Z,48.10
2022-11-19T11:38:05.206Z,47.30
2022-11-19T11:40:32.265Z,47.20
2022-11-19T11:42:59.318Z,46.30
2022-11-19T11:45:35.726Z,46.50
2022-11-19T11:48:08.607Z,46.20
2022-11-19T11:50:37.373Z,45.50
2022-11-19T11:53:10.323Z,45.90
2022-11-19T11:55:38.722Z,45.90
2022-11-19T11:58:32.540Z,46.40
2022-11-19T12:01:20.094Z,45.40
2022-11-19T12:03:58.492Z,44.70
2022-11-19T12:06:35.824Z,45.30
2022-11-19T12:09:55.090Z,45.60
2022-11-19T12:12:38.510Z,45.30
2022-11-19T12:15:29.590Z,46.70
2022-11-19T12:18:27.691Z,45.40
2022-11-19T12:21:04.324Z,45.60
2022-11-19T12:23:49.900Z,45.20
2022-11-19T12:26:40.605Z,45.40
2022-11-19T12:29:15.620Z,45.70
2022-11-19T12:32:25.521Z,46.00
2022-11-19T12:35:16.439Z,45.10
2022-11-19T12:38:14.411Z,45.70
2022-11-19T12:40:50.004Z,45.00
2022-11-19T12:43:44.383Z,45.70
2022-11-19T12:46:45.307Z,45.70
2022-11-19T12:49:23.705Z,44.50
2022-11-19T12:51:59.259Z,45.70
2022-11-19T12:54:47.772Z,45.20
2022-11-19T12:57:28.029Z,42.40
2022-11-19T13:00:08.736Z,45.40
2022-11-19T13:02:58.860Z,44.70
2022-11-19T13:05:47.107Z,44.30
2022-11-19T13:08:35.323Z,44.80
2022-11-19T13:11:10.776Z,45.00
2022-11-19T13:13:44.078Z,44.80
2022-11-19T13:16:15.151Z,45.10
2022-11-19T13:18:45.576Z,44.70
2022-11-19T13:21:45.999Z,43.90
2022-11-19T13:24:29.147Z,43.20
2022-11-19T13:27:02.967Z,43.20
2022-11-19T13:29:39.800Z,43.80
2022-11-19T13:32:19.087Z,42.20
2022-11-19T13:35:24.090Z,45.10
2022-11-19T13:38:04.337Z,41.60
2022-11-19T13:40:40.780Z,43.30
2022-11-19T13:43:36.324Z,43.80
2022-11-19T13:46:09.257Z,44.10
2022-11-19T13:48:50.257Z,44.70
2022-11-19T13:51:32.491Z,45.00
2022-11-19T13:54:03.325Z,45.90
2022-11-19T13:56:57.990Z,46.80
2022-11-19T13:59:27.798Z,47.20
2022-11-19T14:02:32.191Z,48.00
2022-11-19T14:05:10.183Z,50.40
2022-11-19T14:08:11.606Z,51.80
2022-11-19T14:10:50.431Z,52.60
2022-11-19T14:13:42.188Z,53.20
2022-11-19T14:16:47.740Z,54.40
2022-11-19T14:19:35.852Z,55.60
2022-11-19T14:23:01.186Z,56.30
2022-11-19T14:26:07.058Z,56.90
2022-11-19T14:28:43.494Z,58.00
2022-11-19T14:31:10.501Z,58.90
2022-11-19T14:33:49.028Z,59.60
2022-11-19T14:36:46.464Z,60.40
2022-11-19T14:39:29.832Z,61.20
2022-11-19T14:42:18.055Z,62.00
2022-11-19T14:44:46.359Z,62.60
2022-11-19T14:47:22.358Z,62.50
2022-11-19T14:49:54.270Z,63.50
2022-11-19T14:52:28.224Z,63.70
2022-11-19T14:55:02.668Z,64.30
2022-11-19T14:57:41.650Z,64.60
2022-11-19T15:00:14.858Z,65.50
2022-11-19T15:02:51.818Z,66.00
2022-11-19T15:05:20.068Z,66.50
2022-11-19T15:07:54.545Z,67.10
2022-11-19T15:10:45.179Z,67.70
2022-11-19T15:13:22.586Z,68.40
2022-11-19T15:15:52.960Z,69.10
2022-11-19T15:18:28.913Z,69.40
2022-11-19T15:21:21.527Z,70.40
2022-11-19T15:24:41.474Z,71.70
2022-11-19T15:27:45.863Z,72.90
2022-11-19T15:30:21.754Z,73.60
2022-11-19T15:33:59.445Z,74.40
2022-11-19T15:36:30.993Z,77.10
2022-11-19T15:39:11.535Z,75.70
2022-11-19T15:41:43.973Z,77.60
2022-11-19T15:44:17.656Z,78.30
2022-11-19T15:46:56.506Z,78.70
2022-11-19T15:49:29.182Z,80.30
2022-11-19T15:52:02.008Z,81.00
2022-11-19T15:54:34.177Z,82.50
2022-11-19T15:57:14.587Z,84.10
2022-11-19T15:59:42.386Z,84.80
2022-11-19T16:02:23.206Z,84.70
2022-11-19T16:04:51.077Z,86.80
2022-11-19T16:07:24.612Z,86.60
2022-11-19T16:09:51.785Z,88.00
2022-11-19T16:12:43.324Z,89.50
2022-11-19T16:15:42.045Z,90.40
2022-11-19T16:18:19.700Z,91.10
2022-11-19T16:20:50.158Z,91.60
2022-11-19T16:23:20.951Z,91.50
2022-11-19T16:25:51.678Z,91.70
2022-11-19T16:32:33.149Z,94.40
2022-11-19T16:35:27.201Z,93.80
2022-11-19T16:38:05.681Z,95.30
2022-11-19T16:40:54.594Z,95.00
2022-11-19T16:43:22.948Z,94.90
2022-11-19T16:45:52.330Z,94.60
2022-11-19T16:48:54.749Z,94.90
2022-11-19T16:52:15.537Z,96.50
2022-11-19T16:54:55.644Z,96.70
2022-11-19T16:57:33.190Z,96.30
2022-11-19T17:00:30.561Z,95.80
2022-11-19T17:03:19.376Z,97.00
2022-11-19T17:05:55.480Z,97.30
2022-11-19T17:08:42.369Z,96.80
2022-11-19T17:12:21.296Z,96.60
2022-11-19T17:14:56.977Z,98.40
2022-11-19T17:17:39.713Z,97.60
2022-11-19T17:20:36.393Z,98.30
2022-11-19T17:23:12.157Z,98.60
2022-11-19T17:26:04.931Z,98.30
2022-11-19T17:28:47.106Z,99.40
2022-11-19T17:31:29.450Z,99.30
2022-11-19T17:34:22.081Z,98.80
2022-11-19T17:36:52.592Z,99.90
2022-11-19T17:39:25.523Z,99.40
2022-11-19T17:42:17.784Z,99.90
2022-11-19T17:45:06.010Z,99.90
2022-11-19T17:47:51.883Z,99.90
2022-11-19T17:50:54.234Z,99.90
2022-11-19T17:53:30.962Z,99.90
2022-11-19T17:56:04.098Z,99.90
2022-11-19T17:58:34.397Z,99.90
2022-11-19T18:01:05.155Z,99.90
2022-11-19T18:03:38.146Z,99.90
2022-11-19T18:06:17.919Z,99.90
2022-11-19T18:08:52.634Z,99.90
2022-11-19T18:11:27.541Z,99.90
2022-11-19T18:14:00.651Z,99.90
2022-11-19T18:16:35.528Z,99.90
2022-11-19T18:19:04.041Z,99.90
2022-11-19T18:21:56.846Z,99.90
2022-11-19T18:24:30.876Z,99.90
2022-11-19T18:27:05.039Z,99.90
2022-11-19T18:29:38.827Z,99.90
2022-11-19T18:32:17.264Z,99.90
2022-11-19T18:34:49.802Z,99.90
2022-11-19T18:37:22.843Z,99.90
2022-11-19T18:39:55.238Z,99.90
2022-11-19T18:42:29.283Z,99.90
2022-11-19T18:44:57.494Z,99.90
2022-11-19T18:47:27.246Z,99.90
2022-11-19T18:50:00.459Z,99.90
2022-11-19T18:52:38.969Z,99.90
2022-11-19T18:55:07.872Z,99.90
2022-11-19T18:57:36.711Z,99.90
2022-11-19T19:00:12.304Z,99.90
2022-11-19T19:02:45.286Z,99.90
2022-11-19T19:05:14.932Z,99.90
2022-11-19T19:07:44.157Z,99.90
2022-11-19T19:10:13.216Z,99.90
2022-11-19T19:12:41.547Z,99.90
2022-11-19T19:15:15.224Z,99.90
2022-11-19T19:17:48.786Z,99.90
2022-11-19T19:20:27.006Z,99.90
2022-11-19T19:23:03.349Z,99.90
2022-11-19T19:25:34.079Z,99.90
2022-11-19T19:28:32.720Z,99.90
2022-11-19T19:31:05.252Z,99.90
2022-11-19T19:33:33.961Z,99.90
2022-11-19T19:36:12.673Z,99.90
2022-11-19T19:38:46.709Z,99.90
2022-11-19T19:41:27.395Z,99.90
2022-11-19T19:44:13.110Z,99.90
2022-11-19T19:47:08.475Z,99.90
2022-11-19T19:50:02.190Z,99.90
2022-11-19T19:52:37.018Z,99.90
2022-11-19T19:58:16.725Z,99.90
2022-11-19T20:00:48.126Z,99.90
2022-11-19T20:03:28.018Z,99.90
2022-11-19T20:06:02.664Z,99.90
2022-11-19T20:08:37.483Z,99.90
2022-11-19T20:11:11.937Z,99.90
2022-11-19T20:13:49.905Z,99.90
2022-11-19T20:16:25.667Z,99.90
2022-11-19T20:19:00.552Z,99.90
2022-11-19T20:21:36.591Z,99.90
2022-11-19T20:24:12.393Z,99.90
2022-11-19T20:26:46.884Z,99.90
2022-11-19T20:29:22.664Z,99.90
2022-11-19T20:31:55.045Z,99.90
2022-11-19T20:34:28.734Z,99.90
2022-11-19T20:36:59.594Z,99.90
2022-11-19T20:39:30.912Z,99.90
2022-11-19T20:42:17.623Z,99.90
2022-11-19T20:44:46.845Z,99.90
2022-11-19T20:47:17.275Z,99.90
2022-11-19T20:49:45.214Z,99.90
2022-11-19T20:52:17.712Z,99.90
2022-11-19T20:54:52.530Z,99.90
2022-11-19T20:57:23.971Z,99.90
2022-11-19T21:00:01.148Z,99.90
2022-11-19T21:02:30.749Z,99.90
2022-11-19T21:05:07.263Z,99.90
2022-11-19T21:07:40.152Z,99.90
2022-11-19T21:16:29.367Z,99.90
2022-11-19T21:19:01.561Z,99.90
2022-11-19T21:21:42.993Z,99.90
2022-11-19T21:24:38.567Z,99.90
2022-11-19T21:27:13.317Z,99.90
2022-11-19T21:29:44.985Z,99.90
2022-11-19T21:32:19.090Z,99.90
2022-11-19T21:34:49.948Z,99.90
2022-11-19T21:37:18.758Z,99.90
2022-11-19T21:39:48.999Z,99.90
2022-11-19T21:42:20.612Z,99.90
2022-11-19T21:44:50.958Z,99.90
2022-11-19T21:47:21.490Z,99.90
2022-11-19T21:50:01.709Z,99.90
2022-11-19T21:52:32.258Z,99.90
2022-11-19T21:55:01.398Z,99.90
2022-11-19T21:57:38.405Z,99.90
2022-11-19T22:00:08.997Z,99.90
2022-11-19T22:02:37.421Z,99.90
2022-11-19T22:05:07.201Z,99.90
2022-11-19T22:07:36.022Z,99.90
2022-11-19T22:10:07.470Z,99.90
2022-11-19T22:12:46.772Z,99.90
2022-11-19T22:15:18.514Z,99.90
2022-11-19T22:17:46.284Z,99.90
2022-11-19T22:20:20.312Z,99.90
2022-11-19T22:22:51.175Z,99.90
2022-11-19T22:25:38.363Z,99.90
2022-11-19T22:28:06.830Z,99.90
2022-11-19T22:30:44.643Z,99.90
2022-11-19T22:33:25.820Z,99.90
2022-11-19T22:36:25.977Z,99.90
2022-11-19T22:39:17.894Z,99.90
2022-11-19T22:41:53.457Z,99.90
2022-11-19T22:44:39.453Z,99.90
2022-11-19T22:47:07.478Z,99.90
2022-11-19T22:49:39.041Z,99.90
2022-11-19T22:52:08.073Z,99.90
2022-11-19T22:54:41.351Z,99.90
2022-11-19T22:57:12.344Z,99.90
2022-11-19T22:59:43.638Z,99.90
2022-11-19T23:02:11.891Z,99.90
2022-11-19T23:04:46.489Z,99.90
2022-11-19T23:07:14.740Z,99.90
2022-11-19T23:09:42.706Z,99.90
2022-11-19T23:12:29.572Z,99.90
2022-11-19T23:14:59.480Z,99.90
2022-11-19T23:17:26.414Z,99.90
2022-11-19T23:19:53.266Z,99.90
2022-11-19T23:22:20.202Z,99.90
2022-11-19T23:24:47.079Z,99.90
2022-11-19T23:27:19.290Z,99.90
2022-11-19T23:29:48.802Z,99.90
2022-11-19T23:32:15.705Z,99.90
2022-11-19T23:34:42.608Z,99.90
2022-11-19T23:37:09.427Z,99.90
2022-11-19T23:39:36.324Z,99.90
2022-11-19T23:42:03.182Z,99.90
2022-11-19T23:44:30.034Z,99.90
2022-11-19T23:46:59.892Z,99.90
2022-11-19T23:49:26.773Z,99.90
2022-11-19T23:51:53.645Z,99.90
2022-11-19T23:54:20.552Z,99.90
2022-11-19T23:56:47.483Z,99.90
2022-11-19T23:59:14.497Z,99.90
